sensor_id;sensor_type;location;lat;lon;timestamp;P1;durP1;ratioP1;P2;durP2;ratioP2
8542;SDS011;4309;42.658;23.380;2023-02-15T00:00:25;38.88;;;22.70;;
8542;SDS011;4309;42.658;23.380;2023-02-15T00:01:04;44.88;;;24.27;;
8542;SDS011;4309;42.658;23.380;2023-02-15T00:02:19;38.63;;;22.02;;
8542;SDS011;4309;42.658;23.380;2023-02-15T00:02:52;42.05;;;23.85;;
8542;SDS011;4309;42.658;23.380;2023-02-15T00:03:23;43.55;;;24.55;;
8542;SDS011;4309;42.658;23.380;2023-02-15T00:03:55;39.85;;;23.38;;
8542;SDS011;4309;42.658;23.380;2023-02-15T00:04:28;42.42;;;22.13;;
8542;SDS011;4309;42.658;23.380;2023-02-15T00:05:17;40.35;;;23.60;;
8542;SDS011;4309;42.658;23.380;2023-02-15T00:05:50;42.83;;;23.50;;
8542;SDS011;4309;42.658;23.380;2023-02-15T00:06:22;41.65;;;24.48;;
8542;SDS011;4309;42.658;23.380;2023-02-15T00:06:54;40.05;;;24.23;;
8542;SDS011;4309;42.658;23.380;2023-02-15T00:07:26;39.17;;;22.70;;
8542;SDS011;4309;42.658;23.380;2023-02-15T00:07:59;38.60;;;22.05;;
8542;SDS011;4309;42.658;23.380;2023-02-15T00:08:31;40.20;;;23.17;;
8542;SDS011;4309;42.658;23.380;2023-02-15T00:09:04;39.08;;;22.92;;
8542;SDS011;4309;42.658;23.380;2023-02-15T00:09:37;42.72;;;23.83;;
8542;SDS011;4309;42.658;23.380;2023-02-15T00:10:09;40.63;;;22.75;;
8542;SDS011;4309;42.658;23.380;2023-02-15T00:10:42;41.45;;;23.83;;
8542;SDS011;4309;42.658;23.380;2023-02-15T00:11:16;41.40;;;24.10;;
8542;SDS011;4309;42.658;23.380;2023-02-15T00:12:10;38.05;;;21.90;;
8542;SDS011;4309;42.658;23.380;2023-02-15T00:12:43;39.22;;;22.42;;
8542;SDS011;4309;42.658;23.380;2023-02-15T00:13:16;42.38;;;23.40;;
8542;SDS011;4309;42.658;23.380;2023-02-15T00:13:48;45.13;;;24.40;;
8542;SDS011;4309;42.658;23.380;2023-02-15T00:14:20;40.10;;;23.27;;
8542;SDS011;4309;42.658;23.380;2023-02-15T00:14:54;42.15;;;24.08;;
8542;SDS011;4309;42.658;23.380;2023-02-15T00:15:26;39.63;;;23.35;;
8542;SDS011;4309;42.658;23.380;2023-02-15T00:16:00;42.25;;;24.25;;
8542;SDS011;4309;42.658;23.380;2023-02-15T00:16:34;42.92;;;23.58;;
8542;SDS011;4309;42.658;23.380;2023-02-15T00:17:06;42.63;;;24.40;;
8542;SDS011;4309;42.658;23.380;2023-02-15T00:17:39;42.17;;;24.50;;
8542;SDS011;4309;42.658;23.380;2023-02-15T00:18:11;42.70;;;23.35;;
8542;SDS011;4309;42.658;23.380;2023-02-15T00:18:42;40.15;;;23.42;;
8542;SDS011;4309;42.658;23.380;2023-02-15T00:19:14;41.03;;;23.97;;
8542;SDS011;4309;42.658;23.380;2023-02-15T00:19:47;42.38;;;24.55;;
8542;SDS011;4309;42.658;23.380;2023-02-15T00:20:20;43.47;;;24.55;;
8542;SDS011;4309;42.658;23.380;2023-02-15T00:20:53;44.63;;;24.67;;
8542;SDS011;4309;42.658;23.380;2023-02-15T00:21:25;41.10;;;24.02;;
8542;SDS011;4309;42.658;23.380;2023-02-15T00:21:58;35.60;;;20.20;;
8542;SDS011;4309;42.658;23.380;2023-02-15T00:22:30;42.45;;;23.60;;
8542;SDS011;4309;42.658;23.380;2023-02-15T00:23:03;43.38;;;24.38;;
8542;SDS011;4309;42.658;23.380;2023-02-15T00:23:35;42.35;;;24.27;;
8542;SDS011;4309;42.658;23.380;2023-02-15T00:24:08;45.60;;;25.33;;
8542;SDS011;4309;42.658;23.380;2023-02-15T00:24:41;41.42;;;24.50;;
8542;SDS011;4309;42.658;23.380;2023-02-15T00:25:13;35.85;;;20.50;;
8542;SDS011;4309;42.658;23.380;2023-02-15T00:25:45;44.33;;;24.70;;
8542;SDS011;4309;42.658;23.380;2023-02-15T00:26:18;40.45;;;22.83;;
8542;SDS011;4309;42.658;23.380;2023-02-15T00:26:50;37.75;;;23.08;;
8542;SDS011;4309;42.658;23.380;2023-02-15T00:27:24;42.28;;;23.92;;
8542;SDS011;4309;42.658;23.380;2023-02-15T00:27:56;41.08;;;23.70;;
8542;SDS011;4309;42.658;23.380;2023-02-15T00:28:28;41.72;;;24.25;;
8542;SDS011;4309;42.658;23.380;2023-02-15T00:29:01;44.58;;;23.98;;
8542;SDS011;4309;42.658;23.380;2023-02-15T00:29:34;38.35;;;22.63;;
8542;SDS011;4309;42.658;23.380;2023-02-15T00:30:06;40.08;;;22.17;;
8542;SDS011;4309;42.658;23.380;2023-02-15T00:30:40;42.03;;;24.65;;
8542;SDS011;4309;42.658;23.380;2023-02-15T00:31:11;39.90;;;24.25;;
8542;SDS011;4309;42.658;23.380;2023-02-15T00:31:43;40.95;;;24.40;;
8542;SDS011;4309;42.658;23.380;2023-02-15T00:32:15;43.45;;;24.25;;
8542;SDS011;4309;42.658;23.380;2023-02-15T00:32:50;41.00;;;23.80;;
8542;SDS011;4309;42.658;23.380;2023-02-15T00:33:23;40.05;;;22.90;;
8542;SDS011;4309;42.658;23.380;2023-02-15T00:34:00;41.75;;;24.60;;
8542;SDS011;4309;42.658;23.380;2023-02-15T00:34:34;41.20;;;23.60;;
8542;SDS011;4309;42.658;23.380;2023-02-15T00:35:06;41.28;;;22.88;;
8542;SDS011;4309;42.658;23.380;2023-02-15T00:35:38;40.58;;;23.13;;
8542;SDS011;4309;42.658;23.380;2023-02-15T00:36:10;40.78;;;23.92;;
8542;SDS011;4309;42.658;23.380;2023-02-15T00:36:42;41.50;;;22.38;;
8542;SDS011;4309;42.658;23.380;2023-02-15T00:37:14;38.83;;;22.67;;
8542;SDS011;4309;42.658;23.380;2023-02-15T00:37:47;42.42;;;24.80;;
8542;SDS011;4309;42.658;23.380;2023-02-15T00:38:20;42.80;;;24.33;;
8542;SDS011;4309;42.658;23.380;2023-02-15T00:38:52;42.55;;;23.90;;
8542;SDS011;4309;42.658;23.380;2023-02-15T00:39:26;37.85;;;22.70;;
8542;SDS011;4309;42.658;23.380;2023-02-15T00:40:00;42.90;;;23.77;;
8542;SDS011;4309;42.658;23.380;2023-02-15T00:40:31;39.22;;;22.55;;
8542;SDS011;4309;42.658;23.380;2023-02-15T00:41:04;40.75;;;24.48;;
8542;SDS011;4309;42.658;23.380;2023-02-15T00:41:39;41.70;;;23.88;;
8542;SDS011;4309;42.658;23.380;2023-02-15T00:42:10;43.15;;;24.35;;
8542;SDS011;4309;42.658;23.380;2023-02-15T00:42:43;38.97;;;23.48;;
8542;SDS011;4309;42.658;23.380;2023-02-15T00:43:15;39.58;;;21.88;;
8542;SDS011;4309;42.658;23.380;2023-02-15T00:43:47;40.63;;;23.02;;
8542;SDS011;4309;42.658;23.380;2023-02-15T00:44:18;42.20;;;24.73;;
8542;SDS011;4309;42.658;23.380;2023-02-15T00:44:52;41.20;;;23.77;;
8542;SDS011;4309;42.658;23.380;2023-02-15T00:45:23;41.00;;;24.83;;
8542;SDS011;4309;42.658;23.380;2023-02-15T00:45:55;39.28;;;22.05;;
8542;SDS011;4309;42.658;23.380;2023-02-15T00:46:28;40.53;;;23.05;;
8542;SDS011;4309;42.658;23.380;2023-02-15T00:47:00;40.00;;;23.13;;
8542;SDS011;4309;42.658;23.380;2023-02-15T00:47:33;41.65;;;23.75;;
8542;SDS011;4309;42.658;23.380;2023-02-15T00:48:07;42.10;;;24.38;;
8542;SDS011;4309;42.658;23.380;2023-02-15T00:48:39;39.35;;;21.30;;
8542;SDS011;4309;42.658;23.380;2023-02-15T00:49:11;40.47;;;22.40;;
8542;SDS011;4309;42.658;23.380;2023-02-15T00:49:41;40.15;;;23.40;;
8542;SDS011;4309;42.658;23.380;2023-02-15T00:50:14;40.10;;;24.20;;
8542;SDS011;4309;42.658;23.380;2023-02-15T00:50:48;39.08;;;23.77;;
8542;SDS011;4309;42.658;23.380;2023-02-15T00:51:22;39.75;;;22.75;;
8542;SDS011;4309;42.658;23.380;2023-02-15T00:51:54;39.15;;;22.63;;
8542;SDS011;4309;42.658;23.380;2023-02-15T00:52:27;32.90;;;18.50;;
8542;SDS011;4309;42.658;23.380;2023-02-15T00:52:58;35.88;;;22.13;;
8542;SDS011;4309;42.658;23.380;2023-02-15T00:53:30;40.45;;;23.08;;
8542;SDS011;4309;42.658;23.380;2023-02-15T00:54:04;39.03;;;22.60;;
8542;SDS011;4309;42.658;23.380;2023-02-15T00:54:36;40.20;;;22.48;;
8542;SDS011;4309;42.658;23.380;2023-02-15T00:55:08;39.10;;;22.80;;
8542;SDS011;4309;42.658;23.380;2023-02-15T00:55:40;41.17;;;24.47;;
8542;SDS011;4309;42.658;23.380;2023-02-15T00:56:15;39.78;;;23.25;;
8542;SDS011;4309;42.658;23.380;2023-02-15T00:56:46;41.15;;;24.20;;
8542;SDS011;4309;42.658;23.380;2023-02-15T00:57:18;39.97;;;23.65;;
8542;SDS011;4309;42.658;23.380;2023-02-15T00:57:53;40.33;;;23.60;;
8542;SDS011;4309;42.658;23.380;2023-02-15T00:58:25;40.38;;;22.75;;
8542;SDS011;4309;42.658;23.380;2023-02-15T00:58:57;40.22;;;23.58;;
8542;SDS011;4309;42.658;23.380;2023-02-15T00:59:31;40.65;;;22.95;;
8542;SDS011;4309;42.658;23.380;2023-02-15T01:00:03;40.15;;;23.80;;
8542;SDS011;4309;42.658;23.380;2023-02-15T01:00:36;39.40;;;22.88;;
8542;SDS011;4309;42.658;23.380;2023-02-15T01:01:12;39.35;;;23.20;;
8542;SDS011;4309;42.658;23.380;2023-02-15T01:01:44;39.75;;;22.13;;
8542;SDS011;4309;42.658;23.380;2023-02-15T01:02:16;41.30;;;23.75;;
8542;SDS011;4309;42.658;23.380;2023-02-15T01:02:49;37.08;;;22.13;;
8542;SDS011;4309;42.658;23.380;2023-02-15T01:03:23;40.25;;;23.55;;
8542;SDS011;4309;42.658;23.380;2023-02-15T01:03:55;38.08;;;23.08;;
8542;SDS011;4309;42.658;23.380;2023-02-15T01:04:30;38.80;;;21.92;;
8542;SDS011;4309;42.658;23.380;2023-02-15T01:05:02;40.13;;;22.75;;
8542;SDS011;4309;42.658;23.380;2023-02-15T01:05:34;38.35;;;21.63;;
8542;SDS011;4309;42.658;23.380;2023-02-15T01:06:06;36.97;;;22.42;;
8542;SDS011;4309;42.658;23.380;2023-02-15T01:06:39;41.28;;;22.42;;
8542;SDS011;4309;42.658;23.380;2023-02-15T01:07:11;44.08;;;23.98;;
8542;SDS011;4309;42.658;23.380;2023-02-15T01:07:43;37.95;;;22.17;;
8542;SDS011;4309;42.658;23.380;2023-02-15T01:08:15;40.80;;;23.65;;
8542;SDS011;4309;42.658;23.380;2023-02-15T01:08:49;38.83;;;22.00;;
8542;SDS011;4309;42.658;23.380;2023-02-15T01:09:21;40.70;;;23.58;;
8542;SDS011;4309;42.658;23.380;2023-02-15T01:09:52;39.22;;;23.23;;
8542;SDS011;4309;42.658;23.380;2023-02-15T01:10:24;42.72;;;22.65;;
8542;SDS011;4309;42.658;23.380;2023-02-15T01:10:55;38.25;;;22.50;;
8542;SDS011;4309;42.658;23.380;2023-02-15T01:11:28;39.90;;;23.30;;
8542;SDS011;4309;42.658;23.380;2023-02-15T01:11:59;37.63;;;23.30;;
8542;SDS011;4309;42.658;23.380;2023-02-15T01:12:30;38.53;;;22.73;;
8542;SDS011;4309;42.658;23.380;2023-02-15T01:13:02;38.78;;;23.13;;
8542;SDS011;4309;42.658;23.380;2023-02-15T01:13:35;39.75;;;23.83;;
8542;SDS011;4309;42.658;23.380;2023-02-15T01:14:07;40.33;;;24.25;;
8542;SDS011;4309;42.658;23.380;2023-02-15T01:14:40;38.20;;;23.15;;
8542;SDS011;4309;42.658;23.380;2023-02-15T01:15:13;37.85;;;22.92;;
8542;SDS011;4309;42.658;23.380;2023-02-15T01:15:45;38.92;;;22.17;;
8542;SDS011;4309;42.658;23.380;2023-02-15T01:16:23;36.95;;;22.52;;
8542;SDS011;4309;42.658;23.380;2023-02-15T01:16:58;39.33;;;22.88;;
8542;SDS011;4309;42.658;23.380;2023-02-15T01:17:30;37.78;;;22.20;;
8542;SDS011;4309;42.658;23.380;2023-02-15T01:18:02;37.58;;;21.50;;
8542;SDS011;4309;42.658;23.380;2023-02-15T01:18:36;40.15;;;22.92;;
8542;SDS011;4309;42.658;23.380;2023-02-15T01:19:08;36.95;;;22.75;;
8542;SDS011;4309;42.658;23.380;2023-02-15T01:19:42;36.95;;;23.15;;
8542;SDS011;4309;42.658;23.380;2023-02-15T01:20:14;36.58;;;20.90;;
8542;SDS011;4309;42.658;23.380;2023-02-15T01:20:46;39.15;;;22.27;;
8542;SDS011;4309;42.658;23.380;2023-02-15T01:21:20;36.97;;;22.48;;
8542;SDS011;4309;42.658;23.380;2023-02-15T01:21:52;38.63;;;23.00;;
8542;SDS011;4309;42.658;23.380;2023-02-15T01:22:24;37.40;;;22.35;;
8542;SDS011;4309;42.658;23.380;2023-02-15T01:22:58;37.85;;;23.60;;
8542;SDS011;4309;42.658;23.380;2023-02-15T01:23:30;37.20;;;22.50;;
8542;SDS011;4309;42.658;23.380;2023-02-15T01:24:03;37.30;;;22.63;;
8542;SDS011;4309;42.658;23.380;2023-02-15T01:24:37;35.97;;;21.70;;
8542;SDS011;4309;42.658;23.380;2023-02-15T01:25:09;36.92;;;21.85;;
8542;SDS011;4309;42.658;23.380;2023-02-15T01:25:40;38.33;;;21.38;;
8542;SDS011;4309;42.658;23.380;2023-02-15T01:26:12;38.45;;;23.08;;
8542;SDS011;4309;42.658;23.380;2023-02-15T01:26:46;36.38;;;21.98;;
8542;SDS011;4309;42.658;23.380;2023-02-15T01:27:18;37.10;;;22.08;;
8542;SDS011;4309;42.658;23.380;2023-02-15T01:27:50;36.88;;;22.33;;
8542;SDS011;4309;42.658;23.380;2023-02-15T01:28:23;37.58;;;21.80;;
8542;SDS011;4309;42.658;23.380;2023-02-15T01:28:53;36.30;;;21.70;;
8542;SDS011;4309;42.658;23.380;2023-02-15T01:29:25;36.47;;;21.83;;
8542;SDS011;4309;42.658;23.380;2023-02-15T01:29:59;38.65;;;22.50;;
8542;SDS011;4309;42.658;23.380;2023-02-15T01:30:31;40.83;;;22.13;;
8542;SDS011;4309;42.658;23.380;2023-02-15T01:31:07;36.33;;;20.77;;
8542;SDS011;4309;42.658;23.380;2023-02-15T01:31:41;38.80;;;22.35;;
8542;SDS011;4309;42.658;23.380;2023-02-15T01:32:13;38.08;;;23.17;;
8542;SDS011;4309;42.658;23.380;2023-02-15T01:32:45;35.58;;;21.52;;
8542;SDS011;4309;42.658;23.380;2023-02-15T01:33:18;36.33;;;21.38;;
8542;SDS011;4309;42.658;23.380;2023-02-15T01:33:51;38.63;;;23.08;;
8542;SDS011;4309;42.658;23.380;2023-02-15T01:34:23;39.28;;;22.77;;
8542;SDS011;4309;42.658;23.380;2023-02-15T01:34:56;37.85;;;21.98;;
8542;SDS011;4309;42.658;23.380;2023-02-15T01:35:28;38.38;;;23.13;;
8542;SDS011;4309;42.658;23.380;2023-02-15T01:36:01;36.88;;;21.42;;
8542;SDS011;4309;42.658;23.380;2023-02-15T01:36:33;35.42;;;22.33;;
8542;SDS011;4309;42.658;23.380;2023-02-15T01:37:06;40.55;;;23.65;;
8542;SDS011;4309;42.658;23.380;2023-02-15T01:37:38;37.03;;;22.27;;
8542;SDS011;4309;42.658;23.380;2023-02-15T01:38:10;37.97;;;21.05;;
8542;SDS011;4309;42.658;23.380;2023-02-15T01:38:43;37.60;;;22.25;;
8542;SDS011;4309;42.658;23.380;2023-02-15T01:39:16;35.67;;;21.13;;
8542;SDS011;4309;42.658;23.380;2023-02-15T01:39:48;37.33;;;23.08;;
8542;SDS011;4309;42.658;23.380;2023-02-15T01:40:21;38.85;;;22.48;;
8542;SDS011;4309;42.658;23.380;2023-02-15T01:40:54;37.50;;;22.42;;
8542;SDS011;4309;42.658;23.380;2023-02-15T01:41:48;36.70;;;19.63;;
8542;SDS011;4309;42.658;23.380;2023-02-15T01:42:22;34.47;;;20.15;;
8542;SDS011;4309;42.658;23.380;2023-02-15T01:42:53;39.63;;;22.98;;
8542;SDS011;4309;42.658;23.380;2023-02-15T01:43:38;35.83;;;20.73;;
8542;SDS011;4309;42.658;23.380;2023-02-15T01:45:18;36.85;;;19.60;;
8542;SDS011;4309;42.658;23.380;2023-02-15T01:45:54;35.85;;;21.00;;
8542;SDS011;4309;42.658;23.380;2023-02-15T01:46:26;36.63;;;21.75;;
8542;SDS011;4309;42.658;23.380;2023-02-15T01:47:02;37.08;;;21.55;;
8542;SDS011;4309;42.658;23.380;2023-02-15T01:47:36;35.72;;;21.55;;
8542;SDS011;4309;42.658;23.380;2023-02-15T01:48:14;38.20;;;22.48;;
8542;SDS011;4309;42.658;23.380;2023-02-15T01:48:55;36.83;;;21.13;;
8542;SDS011;4309;42.658;23.380;2023-02-15T01:49:32;40.80;;;23.13;;
8542;SDS011;4309;42.658;23.380;2023-02-15T01:50:08;39.00;;;21.92;;
8542;SDS011;4309;42.658;23.380;2023-02-15T01:50:44;34.58;;;21.00;;
8542;SDS011;4309;42.658;23.380;2023-02-15T01:51:20;40.38;;;22.85;;
8542;SDS011;4309;42.658;23.380;2023-02-15T01:52:48;38.25;;;22.30;;
8542;SDS011;4309;42.658;23.380;2023-02-15T01:53:26;40.15;;;22.10;;
8542;SDS011;4309;42.658;23.380;2023-02-15T01:54:05;39.67;;;22.20;;
8542;SDS011;4309;42.658;23.380;2023-02-15T01:54:41;40.42;;;22.02;;
8542;SDS011;4309;42.658;23.380;2023-02-15T01:55:17;38.38;;;21.20;;
8542;SDS011;4309;42.658;23.380;2023-02-15T01:55:52;39.42;;;22.58;;
8542;SDS011;4309;42.658;23.380;2023-02-15T01:56:28;40.85;;;21.38;;
8542;SDS011;4309;42.658;23.380;2023-02-15T01:57:06;39.30;;;22.17;;
8542;SDS011;4309;42.658;23.380;2023-02-15T01:57:42;36.92;;;21.30;;
8542;SDS011;4309;42.658;23.380;2023-02-15T01:58:16;37.10;;;21.95;;
8542;SDS011;4309;42.658;23.380;2023-02-15T01:58:51;33.92;;;20.13;;
8542;SDS011;4309;42.658;23.380;2023-02-15T01:59:26;34.78;;;20.50;;
8542;SDS011;4309;42.658;23.380;2023-02-15T01:59:59;37.13;;;21.65;;
8542;SDS011;4309;42.658;23.380;2023-02-15T02:00:38;37.15;;;21.50;;
8542;SDS011;4309;42.658;23.380;2023-02-15T02:01:10;34.33;;;21.25;;
8542;SDS011;4309;42.658;23.380;2023-02-15T02:01:42;37.92;;;22.17;;
8542;SDS011;4309;42.658;23.380;2023-02-15T02:02:16;38.25;;;21.17;;
8542;SDS011;4309;42.658;23.380;2023-02-15T02:02:49;36.30;;;21.27;;
8542;SDS011;4309;42.658;23.380;2023-02-15T02:03:27;34.90;;;21.27;;
8542;SDS011;4309;42.658;23.380;2023-02-15T02:04:09;37.35;;;21.60;;
8542;SDS011;4309;42.658;23.380;2023-02-15T02:04:48;35.58;;;21.35;;
8542;SDS011;4309;42.658;23.380;2023-02-15T02:05:21;39.40;;;21.00;;
8542;SDS011;4309;42.658;23.380;2023-02-15T02:05:54;35.08;;;21.27;;
8542;SDS011;4309;42.658;23.380;2023-02-15T02:06:25;35.80;;;21.02;;
8542;SDS011;4309;42.658;23.380;2023-02-15T02:06:58;37.25;;;21.67;;
8542;SDS011;4309;42.658;23.380;2023-02-15T02:07:32;36.78;;;22.50;;
8542;SDS011;4309;42.658;23.380;2023-02-15T02:08:08;39.13;;;22.98;;
8542;SDS011;4309;42.658;23.380;2023-02-15T02:08:41;37.60;;;22.10;;
8542;SDS011;4309;42.658;23.380;2023-02-15T02:09:14;37.85;;;22.48;;
8542;SDS011;4309;42.658;23.380;2023-02-15T02:09:47;36.92;;;22.27;;
8542;SDS011;4309;42.658;23.380;2023-02-15T02:10:20;35.05;;;19.02;;
8542;SDS011;4309;42.658;23.380;2023-02-15T02:10:52;39.95;;;22.20;;
8542;SDS011;4309;42.658;23.380;2023-02-15T02:11:25;39.70;;;22.90;;
8542;SDS011;4309;42.658;23.380;2023-02-15T02:11:57;40.78;;;22.45;;
8542;SDS011;4309;42.658;23.380;2023-02-15T02:12:30;39.90;;;24.30;;
8542;SDS011;4309;42.658;23.380;2023-02-15T02:13:05;41.88;;;24.98;;
8542;SDS011;4309;42.658;23.380;2023-02-15T02:13:38;41.80;;;23.63;;
8542;SDS011;4309;42.658;23.380;2023-02-15T02:14:11;44.22;;;25.60;;
8542;SDS011;4309;42.658;23.380;2023-02-15T02:14:45;39.95;;;23.85;;
8542;SDS011;4309;42.658;23.380;2023-02-15T02:15:18;46.13;;;26.90;;
8542;SDS011;4309;42.658;23.380;2023-02-15T02:15:53;43.92;;;25.45;;
8542;SDS011;4309;42.658;23.380;2023-02-15T02:16:35;44.10;;;25.02;;
8542;SDS011;4309;42.658;23.380;2023-02-15T02:17:15;43.53;;;24.67;;
8542;SDS011;4309;42.658;23.380;2023-02-15T02:17:54;40.17;;;22.92;;
8542;SDS011;4309;42.658;23.380;2023-02-15T02:18:41;41.50;;;23.58;;
8542;SDS011;4309;42.658;23.380;2023-02-15T02:20:42;36.22;;;21.25;;
8542;SDS011;4309;42.658;23.380;2023-02-15T02:21:34;35.88;;;19.90;;
8542;SDS011;4309;42.658;23.380;2023-02-15T02:22:32;33.97;;;18.63;;
8542;SDS011;4309;42.658;23.380;2023-02-15T02:23:46;32.05;;;19.38;;
8542;SDS011;4309;42.658;23.380;2023-02-15T02:24:45;34.58;;;19.38;;
8542;SDS011;4309;42.658;23.380;2023-02-15T02:25:58;35.65;;;19.85;;
8542;SDS011;4309;42.658;23.380;2023-02-15T02:28:01;31.83;;;17.20;;
8542;SDS011;4309;42.658;23.380;2023-02-15T02:28:52;34.15;;;19.65;;
8542;SDS011;4309;42.658;23.380;2023-02-15T02:31:25;33.22;;;19.15;;
8542;SDS011;4309;42.658;23.380;2023-02-15T02:33:25;30.00;;;17.17;;
8542;SDS011;4309;42.658;23.380;2023-02-15T02:34:10;37.38;;;20.88;;
8542;SDS011;4309;42.658;23.380;2023-02-15T02:34:49;33.35;;;18.38;;
8542;SDS011;4309;42.658;23.380;2023-02-15T02:35:30;37.78;;;21.67;;
8542;SDS011;4309;42.658;23.380;2023-02-15T02:36:10;36.20;;;21.00;;
8542;SDS011;4309;42.658;23.380;2023-02-15T02:36:52;34.20;;;19.77;;
8542;SDS011;4309;42.658;23.380;2023-02-15T02:37:34;38.53;;;21.45;;
8542;SDS011;4309;42.658;23.380;2023-02-15T02:38:18;35.38;;;20.95;;
8542;SDS011;4309;42.658;23.380;2023-02-15T02:39:06;35.45;;;19.35;;
8542;SDS011;4309;42.658;23.380;2023-02-15T02:39:46;31.90;;;19.10;;
8542;SDS011;4309;42.658;23.380;2023-02-15T02:40:33;36.30;;;20.73;;
8542;SDS011;4309;42.658;23.380;2023-02-15T02:41:13;34.95;;;21.13;;
8542;SDS011;4309;42.658;23.380;2023-02-15T02:41:55;32.72;;;19.42;;
8542;SDS011;4309;42.658;23.380;2023-02-15T02:42:33;38.22;;;20.83;;
8542;SDS011;4309;42.658;23.380;2023-02-15T02:43:10;38.22;;;20.85;;
8542;SDS011;4309;42.658;23.380;2023-02-15T02:43:48;39.95;;;21.00;;
8542;SDS011;4309;42.658;23.380;2023-02-15T02:44:26;40.08;;;22.50;;
8542;SDS011;4309;42.658;23.380;2023-02-15T02:45:05;36.13;;;19.73;;
8542;SDS011;4309;42.658;23.380;2023-02-15T02:45:39;35.38;;;20.77;;
8542;SDS011;4309;42.658;23.380;2023-02-15T02:46:17;34.50;;;21.45;;
8542;SDS011;4309;42.658;23.380;2023-02-15T02:46:54;35.97;;;20.45;;
8542;SDS011;4309;42.658;23.380;2023-02-15T02:47:34;36.33;;;20.50;;
8542;SDS011;4309;42.658;23.380;2023-02-15T02:48:13;32.65;;;19.58;;
8542;SDS011;4309;42.658;23.380;2023-02-15T02:48:49;33.85;;;20.60;;
8542;SDS011;4309;42.658;23.380;2023-02-15T02:49:32;25.83;;;13.48;;
8542;SDS011;4309;42.658;23.380;2023-02-15T02:50:08;36.70;;;20.50;;
8542;SDS011;4309;42.658;23.380;2023-02-15T02:50:44;34.70;;;20.38;;
8542;SDS011;4309;42.658;23.380;2023-02-15T02:51:16;36.03;;;21.20;;
8542;SDS011;4309;42.658;23.380;2023-02-15T02:51:57;35.28;;;20.48;;
8542;SDS011;4309;42.658;23.380;2023-02-15T02:52:40;37.65;;;20.38;;
8542;SDS011;4309;42.658;23.380;2023-02-15T02:53:14;35.25;;;20.50;;
8542;SDS011;4309;42.658;23.380;2023-02-15T02:53:47;34.80;;;19.95;;
8542;SDS011;4309;42.658;23.380;2023-02-15T02:54:21;34.28;;;20.50;;
8542;SDS011;4309;42.658;23.380;2023-02-15T02:54:53;35.58;;;20.35;;
8542;SDS011;4309;42.658;23.380;2023-02-15T02:55:26;36.83;;;20.85;;
8542;SDS011;4309;42.658;23.380;2023-02-15T02:56:03;36.58;;;20.60;;
8542;SDS011;4309;42.658;23.380;2023-02-15T02:56:44;35.97;;;20.10;;
8542;SDS011;4309;42.658;23.380;2023-02-15T02:57:20;37.67;;;22.25;;
8542;SDS011;4309;42.658;23.380;2023-02-15T02:57:59;32.90;;;19.58;;
8542;SDS011;4309;42.658;23.380;2023-02-15T02:58:37;35.10;;;21.05;;
8542;SDS011;4309;42.658;23.380;2023-02-15T02:59:15;34.50;;;20.48;;
8542;SDS011;4309;42.658;23.380;2023-02-15T02:59:52;34.17;;;21.48;;
8542;SDS011;4309;42.658;23.380;2023-02-15T03:00:29;36.67;;;20.25;;
8542;SDS011;4309;42.658;23.380;2023-02-15T03:02:12;35.38;;;21.38;;
8542;SDS011;4309;42.658;23.380;2023-02-15T03:02:50;36.63;;;21.63;;
8542;SDS011;4309;42.658;23.380;2023-02-15T03:03:27;36.90;;;20.92;;
8542;SDS011;4309;42.658;23.380;2023-02-15T03:04:03;35.55;;;20.73;;
8542;SDS011;4309;42.658;23.380;2023-02-15T03:04:42;32.92;;;20.45;;
8542;SDS011;4309;42.658;23.380;2023-02-15T03:05:20;33.08;;;19.27;;
8542;SDS011;4309;42.658;23.380;2023-02-15T03:05:56;34.10;;;20.30;;
8542;SDS011;4309;42.658;23.380;2023-02-15T03:06:33;34.45;;;20.27;;
8542;SDS011;4309;42.658;23.380;2023-02-15T03:07:12;35.67;;;21.17;;
8542;SDS011;4309;42.658;23.380;2023-02-15T03:07:53;34.45;;;20.33;;
8542;SDS011;4309;42.658;23.380;2023-02-15T03:08:29;33.25;;;20.23;;
8542;SDS011;4309;42.658;23.380;2023-02-15T03:09:14;34.92;;;18.23;;
8542;SDS011;4309;42.658;23.380;2023-02-15T03:09:56;33.28;;;19.88;;
8542;SDS011;4309;42.658;23.380;2023-02-15T03:10:30;37.60;;;20.90;;
8542;SDS011;4309;42.658;23.380;2023-02-15T03:11:03;34.33;;;20.27;;
8542;SDS011;4309;42.658;23.380;2023-02-15T03:11:36;33.17;;;20.38;;
8542;SDS011;4309;42.658;23.380;2023-02-15T03:12:08;34.92;;;20.42;;
8542;SDS011;4309;42.658;23.380;2023-02-15T03:12:45;35.30;;;20.25;;
8542;SDS011;4309;42.658;23.380;2023-02-15T03:13:17;34.03;;;20.52;;
8542;SDS011;4309;42.658;23.380;2023-02-15T03:13:49;33.97;;;20.70;;
8542;SDS011;4309;42.658;23.380;2023-02-15T03:14:23;34.95;;;20.92;;
8542;SDS011;4309;42.658;23.380;2023-02-15T03:14:56;36.92;;;21.67;;
8542;SDS011;4309;42.658;23.380;2023-02-15T03:15:33;34.85;;;19.70;;
8542;SDS011;4309;42.658;23.380;2023-02-15T03:16:27;34.45;;;19.92;;
8542;SDS011;4309;42.658;23.380;2023-02-15T03:17:00;31.83;;;19.67;;
8542;SDS011;4309;42.658;23.380;2023-02-15T03:17:35;35.72;;;21.23;;
8542;SDS011;4309;42.658;23.380;2023-02-15T03:18:11;34.35;;;20.50;;
8542;SDS011;4309;42.658;23.380;2023-02-15T03:18:44;33.70;;;20.33;;
8542;SDS011;4309;42.658;23.380;2023-02-15T03:19:24;33.72;;;20.15;;
8542;SDS011;4309;42.658;23.380;2023-02-15T03:20:00;33.58;;;20.33;;
8542;SDS011;4309;42.658;23.380;2023-02-15T03:20:36;35.00;;;21.08;;
8542;SDS011;4309;42.658;23.380;2023-02-15T03:21:10;36.50;;;21.33;;
8542;SDS011;4309;42.658;23.380;2023-02-15T03:21:54;33.88;;;19.45;;
8542;SDS011;4309;42.658;23.380;2023-02-15T03:22:35;32.90;;;19.10;;
8542;SDS011;4309;42.658;23.380;2023-02-15T03:23:13;32.78;;;19.67;;
8542;SDS011;4309;42.658;23.380;2023-02-15T03:23:51;33.90;;;19.85;;
8542;SDS011;4309;42.658;23.380;2023-02-15T03:24:29;38.75;;;21.85;;
8542;SDS011;4309;42.658;23.380;2023-02-15T03:25:09;34.63;;;19.45;;
8542;SDS011;4309;42.658;23.380;2023-02-15T03:25:47;34.08;;;20.02;;
8542;SDS011;4309;42.658;23.380;2023-02-15T03:26:23;34.08;;;20.00;;
8542;SDS011;4309;42.658;23.380;2023-02-15T03:26:57;34.65;;;19.75;;
8542;SDS011;4309;42.658;23.380;2023-02-15T03:27:31;32.47;;;19.17;;
8542;SDS011;4309;42.658;23.380;2023-02-15T03:28:13;35.28;;;20.60;;
8542;SDS011;4309;42.658;23.380;2023-02-15T03:28:49;34.25;;;20.13;;
8542;SDS011;4309;42.658;23.380;2023-02-15T03:29:25;33.83;;;20.27;;
8542;SDS011;4309;42.658;23.380;2023-02-15T03:30:00;35.58;;;19.92;;
8542;SDS011;4309;42.658;23.380;2023-02-15T03:30:34;34.88;;;20.05;;
8542;SDS011;4309;42.658;23.380;2023-02-15T03:31:08;33.17;;;19.92;;
8542;SDS011;4309;42.658;23.380;2023-02-15T03:31:44;33.08;;;19.40;;
8542;SDS011;4309;42.658;23.380;2023-02-15T03:32:22;32.42;;;18.02;;
8542;SDS011;4309;42.658;23.380;2023-02-15T03:32:58;33.83;;;20.65;;
8542;SDS011;4309;42.658;23.380;2023-02-15T03:33:31;31.08;;;18.10;;
8542;SDS011;4309;42.658;23.380;2023-02-15T03:34:08;32.33;;;19.80;;
8542;SDS011;4309;42.658;23.380;2023-02-15T03:34:43;35.15;;;19.70;;
8542;SDS011;4309;42.658;23.380;2023-02-15T03:35:16;33.60;;;20.15;;
8542;SDS011;4309;42.658;23.380;2023-02-15T03:35:54;31.85;;;17.83;;
8542;SDS011;4309;42.658;23.380;2023-02-15T03:36:34;34.55;;;19.95;;
8542;SDS011;4309;42.658;23.380;2023-02-15T03:37:11;29.58;;;18.92;;
8542;SDS011;4309;42.658;23.380;2023-02-15T03:37:51;33.85;;;19.27;;
8542;SDS011;4309;42.658;23.380;2023-02-15T03:38:29;32.70;;;19.90;;
8542;SDS011;4309;42.658;23.380;2023-02-15T03:39:10;33.70;;;19.77;;